sensor_id;sensor_type;location;lat;lon;timestamp;P1;durP1;ratioP1;P2;durP2;ratioP2
15412;SDS011;7805;49.554;7.632;2024-01-10T00:02:20;15.17;;;8.93;;
15412;SDS011;7805;49.554;7.632;2024-01-10T00:04:45;19.07;;;9.83;;
15412;SDS011;7805;49.554;7.632;2024-01-10T00:07:11;17.00;;;9.57;;
15412;SDS011;7805;49.554;7.632;2024-01-10T00:09:36;18.07;;;10.33;;
15412;SDS011;7805;49.554;7.632;2024-01-10T00:12:02;18.07;;;11.23;;
15412;SDS011;7805;49.554;7.632;2024-01-10T00:14:27;15.93;;;10.03;;
15412;SDS011;7805;49.554;7.632;2024-01-10T00:16:53;14.63;;;8.93;;
15412;SDS011;7805;49.554;7.632;2024-01-10T00:19:18;17.27;;;8.83;;
15412;SDS011;7805;49.554;7.632;2024-01-10T00:21:44;16.33;;;9.30;;
15412;SDS011;7805;49.554;7.632;2024-01-10T00:24:10;15.67;;;8.63;;
15412;SDS011;7805;49.554;7.632;2024-01-10T00:26:35;16.07;;;8.20;;
15412;SDS011;7805;49.554;7.632;2024-01-10T00:29:01;15.53;;;7.87;;
15412;SDS011;7805;49.554;7.632;2024-01-10T00:31:26;14.10;;;8.67;;
15412;SDS011;7805;49.554;7.632;2024-01-10T00:33:52;15.53;;;8.73;;
15412;SDS011;7805;49.554;7.632;2024-01-10T00:36:17;12.83;;;7.40;;
15412;SDS011;7805;49.554;7.632;2024-01-10T00:38:43;15.10;;;7.80;;
15412;SDS011;7805;49.554;7.632;2024-01-10T00:41:08;14.93;;;8.00;;
15412;SDS011;7805;49.554;7.632;2024-01-10T00:43:34;15.47;;;7.87;;
15412;SDS011;7805;49.554;7.632;2024-01-10T00:46:00;14.30;;;8.10;;
15412;SDS011;7805;49.554;7.632;2024-01-10T00:48:25;13.73;;;8.67;;
15412;SDS011;7805;49.554;7.632;2024-01-10T00:50:51;16.73;;;7.63;;
15412;SDS011;7805;49.554;7.632;2024-01-10T00:53:16;12.00;;;7.43;;
15412;SDS011;7805;49.554;7.632;2024-01-10T00:55:42;14.23;;;7.43;;
15412;SDS011;7805;49.554;7.632;2024-01-10T00:58:08;14.60;;;7.87;;
15412;SDS011;7805;49.554;7.632;2024-01-10T01:00:33;13.13;;;7.30;;
15412;SDS011;7805;49.554;7.632;2024-01-10T01:02:59;12.87;;;7.73;;
15412;SDS011;7805;49.554;7.632;2024-01-10T01:05:24;11.27;;;6.43;;
15412;SDS011;7805;49.554;7.632;2024-01-10T01:07:50;13.23;;;7.77;;
15412;SDS011;7805;49.554;7.632;2024-01-10T01:10:15;12.83;;;7.17;;
15412;SDS011;7805;49.554;7.632;2024-01-10T01:12:41;13.93;;;7.03;;
15412;SDS011;7805;49.554;7.632;2024-01-10T01:15:07;14.53;;;7.33;;
15412;SDS011;7805;49.554;7.632;2024-01-10T01:17:32;14.60;;;7.97;;
15412;SDS011;7805;49.554;7.632;2024-01-10T01:19:59;12.47;;;7.20;;
15412;SDS011;7805;49.554;7.632;2024-01-10T01:22:25;14.87;;;8.10;;
15412;SDS011;7805;49.554;7.632;2024-01-10T01:24:51;14.53;;;7.77;;
15412;SDS011;7805;49.554;7.632;2024-01-10T01:27:17;16.40;;;8.53;;
15412;SDS011;7805;49.554;7.632;2024-01-10T01:29:42;16.33;;;9.00;;
15412;SDS011;7805;49.554;7.632;2024-01-10T01:32:08;20.20;;;10.47;;
15412;SDS011;7805;49.554;7.632;2024-01-10T01:34:34;21.70;;;11.17;;
15412;SDS011;7805;49.554;7.632;2024-01-10T01:36:59;26.13;;;12.77;;
15412;SDS011;7805;49.554;7.632;2024-01-10T01:39:26;16.37;;;9.03;;
15412;SDS011;7805;49.554;7.632;2024-01-10T01:41:51;21.23;;;10.13;;
15412;SDS011;7805;49.554;7.632;2024-01-10T01:44:17;20.57;;;11.20;;
15412;SDS011;7805;49.554;7.632;2024-01-10T01:46:43;17.77;;;9.50;;
15412;SDS011;7805;49.554;7.632;2024-01-10T01:49:09;15.80;;;9.03;;
15412;SDS011;7805;49.554;7.632;2024-01-10T01:51:35;17.50;;;9.17;;
15412;SDS011;7805;49.554;7.632;2024-01-10T01:54:03;15.67;;;9.30;;
15412;SDS011;7805;49.554;7.632;2024-01-10T01:56:31;16.27;;;9.20;;
15412;SDS011;7805;49.554;7.632;2024-01-10T01:58:56;20.40;;;9.63;;
15412;SDS011;7805;49.554;7.632;2024-01-10T02:01:22;16.00;;;9.27;;
15412;SDS011;7805;49.554;7.632;2024-01-10T02:03:48;14.57;;;7.80;;
15412;SDS011;7805;49.554;7.632;2024-01-10T02:06:14;14.43;;;8.70;;
15412;SDS011;7805;49.554;7.632;2024-01-10T02:08:39;19.63;;;8.77;;
15412;SDS011;7805;49.554;7.632;2024-01-10T02:11:05;16.67;;;8.90;;
15412;SDS011;7805;49.554;7.632;2024-01-10T02:13:32;15.80;;;8.97;;
15412;SDS011;7805;49.554;7.632;2024-01-10T02:15:58;13.93;;;8.43;;
15412;SDS011;7805;49.554;7.632;2024-01-10T02:18:24;16.60;;;9.47;;
15412;SDS011;7805;49.554;7.632;2024-01-10T02:20:49;21.43;;;12.00;;
15412;SDS011;7805;49.554;7.632;2024-01-10T02:23:15;17.20;;;9.80;;
15412;SDS011;7805;49.554;7.632;2024-01-10T02:25:41;17.40;;;8.87;;
15412;SDS011;7805;49.554;7.632;2024-01-10T02:28:07;17.07;;;8.20;;
15412;SDS011;7805;49.554;7.632;2024-01-10T02:30:34;14.70;;;7.80;;
15412;SDS011;7805;49.554;7.632;2024-01-10T02:33:00;16.80;;;8.40;;
15412;SDS011;7805;49.554;7.632;2024-01-10T02:35:26;16.07;;;8.20;;
15412;SDS011;7805;49.554;7.632;2024-01-10T02:37:52;14.77;;;8.70;;
15412;SDS011;7805;49.554;7.632;2024-01-10T02:40:19;13.73;;;8.33;;
15412;SDS011;7805;49.554;7.632;2024-01-10T02:42:45;14.20;;;8.00;;
15412;SDS011;7805;49.554;7.632;2024-01-10T02:45:10;15.67;;;8.53;;
15412;SDS011;7805;49.554;7.632;2024-01-10T02:47:36;18.53;;;8.83;;
15412;SDS011;7805;49.554;7.632;2024-01-10T02:50:02;15.13;;;8.33;;
15412;SDS011;7805;49.554;7.632;2024-01-10T02:52:28;20.20;;;9.47;;
15412;SDS011;7805;49.554;7.632;2024-01-10T02:54:54;16.93;;;9.40;;
15412;SDS011;7805;49.554;7.632;2024-01-10T02:57:20;16.20;;;9.00;;
15412;SDS011;7805;49.554;7.632;2024-01-10T02:59:45;18.47;;;9.80;;
15412;SDS011;7805;49.554;7.632;2024-01-10T03:02:11;17.17;;;9.50;;
15412;SDS011;7805;49.554;7.632;2024-01-10T03:04:36;15.90;;;9.87;;
15412;SDS011;7805;49.554;7.632;2024-01-10T03:07:02;21.67;;;10.50;;
15412;SDS011;7805;49.554;7.632;2024-01-10T03:09:28;18.10;;;9.83;;
15412;SDS011;7805;49.554;7.632;2024-01-10T03:11:53;18.10;;;10.37;;
15412;SDS011;7805;49.554;7.632;2024-01-10T03:14:19;18.83;;;9.77;;
15412;SDS011;7805;49.554;7.632;2024-01-10T03:16:44;18.87;;;10.33;;
15412;SDS011;7805;49.554;7.632;2024-01-10T03:19:10;18.13;;;9.90;;
15412;SDS011;7805;49.554;7.632;2024-01-10T03:21:36;24.63;;;12.90;;
15412;SDS011;7805;49.554;7.632;2024-01-10T03:24:02;26.13;;;14.43;;
15412;SDS011;7805;49.554;7.632;2024-01-10T03:26:28;25.57;;;12.73;;
15412;SDS011;7805;49.554;7.632;2024-01-10T03:28:55;25.33;;;13.70;;
15412;SDS011;7805;49.554;7.632;2024-01-10T03:31:20;22.90;;;13.57;;
15412;SDS011;7805;49.554;7.632;2024-01-10T03:33:46;17.93;;;11.87;;
15412;SDS011;7805;49.554;7.632;2024-01-10T03:36:12;20.63;;;12.33;;
15412;SDS011;7805;49.554;7.632;2024-01-10T03:38:40;22.20;;;12.40;;
15412;SDS011;7805;49.554;7.632;2024-01-10T03:41:05;18.47;;;10.90;;
15412;SDS011;7805;49.554;7.632;2024-01-10T03:43:31;18.57;;;10.40;;
15412;SDS011;7805;49.554;7.632;2024-01-10T03:45:57;18.70;;;10.97;;
15412;SDS011;7805;49.554;7.632;2024-01-10T03:48:23;19.00;;;10.70;;
15412;SDS011;7805;49.554;7.632;2024-01-10T03:50:48;22.47;;;11.37;;
15412;SDS011;7805;49.554;7.632;2024-01-10T03:53:14;22.17;;;11.30;;
15412;SDS011;7805;49.554;7.632;2024-01-10T03:55:40;20.90;;;10.60;;
15412;SDS011;7805;49.554;7.632;2024-01-10T03:58:06;17.93;;;10.30;;
15412;SDS011;7805;49.554;7.632;2024-01-10T04:00:31;17.97;;;9.87;;
15412;SDS011;7805;49.554;7.632;2024-01-10T04:02:57;18.93;;;9.67;;
15412;SDS011;7805;49.554;7.632;2024-01-10T04:05:23;16.77;;;10.50;;
15412;SDS011;7805;49.554;7.632;2024-01-10T04:07:50;18.83;;;11.27;;
15412;SDS011;7805;49.554;7.632;2024-01-10T04:10:16;21.10;;;10.87;;
15412;SDS011;7805;49.554;7.632;2024-01-10T04:12:42;18.13;;;10.70;;
15412;SDS011;7805;49.554;7.632;2024-01-10T04:15:08;17.53;;;11.10;;
15412;SDS011;7805;49.554;7.632;2024-01-10T04:17:34;19.50;;;11.10;;
15412;SDS011;7805;49.554;7.632;2024-01-10T04:20:00;20.20;;;11.57;;
15412;SDS011;7805;49.554;7.632;2024-01-10T04:22:26;20.17;;;10.80;;
15412;SDS011;7805;49.554;7.632;2024-01-10T04:24:52;22.37;;;11.50;;
15412;SDS011;7805;49.554;7.632;2024-01-10T04:27:17;21.17;;;11.30;;
15412;SDS011;7805;49.554;7.632;2024-01-10T04:29:43;23.60;;;12.27;;
15412;SDS011;7805;49.554;7.632;2024-01-10T04:32:09;19.50;;;10.90;;
15412;SDS011;7805;49.554;7.632;2024-01-10T04:34:35;21.03;;;11.73;;
15412;SDS011;7805;49.554;7.632;2024-01-10T04:37:01;22.37;;;10.97;;
15412;SDS011;7805;49.554;7.632;2024-01-10T04:39:26;23.13;;;12.10;;
15412;SDS011;7805;49.554;7.632;2024-01-10T04:41:52;21.33;;;11.03;;
15412;SDS011;7805;49.554;7.632;2024-01-10T04:44:17;19.83;;;10.93;;
15412;SDS011;7805;49.554;7.632;2024-01-10T04:46:43;20.50;;;11.67;;
15412;SDS011;7805;49.554;7.632;2024-01-10T04:49:09;16.93;;;10.47;;
15412;SDS011;7805;49.554;7.632;2024-01-10T04:51:34;20.47;;;11.13;;
15412;SDS011;7805;49.554;7.632;2024-01-10T04:54:00;22.60;;;10.97;;
15412;SDS011;7805;49.554;7.632;2024-01-10T04:56:26;20.53;;;11.37;;
15412;SDS011;7805;49.554;7.632;2024-01-10T04:58:51;22.80;;;11.67;;
15412;SDS011;7805;49.554;7.632;2024-01-10T05:01:17;20.63;;;10.73;;
15412;SDS011;7805;49.554;7.632;2024-01-10T05:03:43;18.67;;;11.13;;
15412;SDS011;7805;49.554;7.632;2024-01-10T05:06:09;20.80;;;10.67;;
15412;SDS011;7805;49.554;7.632;2024-01-10T05:08:34;23.80;;;11.97;;
15412;SDS011;7805;49.554;7.632;2024-01-10T05:11:00;20.83;;;11.67;;
15412;SDS011;7805;49.554;7.632;2024-01-10T05:13:25;20.60;;;11.33;;
15412;SDS011;7805;49.554;7.632;2024-01-10T05:15:51;21.13;;;11.23;;
15412;SDS011;7805;49.554;7.632;2024-01-10T05:18:17;16.77;;;10.20;;
15412;SDS011;7805;49.554;7.632;2024-01-10T05:20:43;19.63;;;10.50;;
15412;SDS011;7805;49.554;7.632;2024-01-10T05:23:09;19.37;;;11.17;;
15412;SDS011;7805;49.554;7.632;2024-01-10T05:25:35;16.93;;;10.27;;
15412;SDS011;7805;49.554;7.632;2024-01-10T05:28:01;19.47;;;10.70;;
15412;SDS011;7805;49.554;7.632;2024-01-10T05:30:27;23.50;;;12.13;;
15412;SDS011;7805;49.554;7.632;2024-01-10T05:32:52;19.23;;;11.37;;
15412;SDS011;7805;49.554;7.632;2024-01-10T05:35:18;23.27;;;11.37;;
15412;SDS011;7805;49.554;7.632;2024-01-10T05:37:43;23.17;;;11.63;;
15412;SDS011;7805;49.554;7.632;2024-01-10T05:40:09;21.77;;;12.37;;
15412;SDS011;7805;49.554;7.632;2024-01-10T05:42:35;22.43;;;12.83;;
15412;SDS011;7805;49.554;7.632;2024-01-10T05:45:02;23.60;;;11.57;;
15412;SDS011;7805;49.554;7.632;2024-01-10T05:47:29;19.37;;;11.37;;
15412;SDS011;7805;49.554;7.632;2024-01-10T05:49:54;20.90;;;12.00;;
15412;SDS011;7805;49.554;7.632;2024-01-10T05:52:20;22.17;;;12.27;;
15412;SDS011;7805;49.554;7.632;2024-01-10T05:54:47;19.17;;;10.90;;
15412;SDS011;7805;49.554;7.632;2024-01-10T05:57:13;22.87;;;12.80;;
15412;SDS011;7805;49.554;7.632;2024-01-10T05:59:42;19.80;;;10.80;;
15412;SDS011;7805;49.554;7.632;2024-01-10T06:02:07;24.77;;;13.40;;
15412;SDS011;7805;49.554;7.632;2024-01-10T06:04:33;30.33;;;18.07;;
15412;SDS011;7805;49.554;7.632;2024-01-10T06:06:58;39.40;;;22.93;;
15412;SDS011;7805;49.554;7.632;2024-01-10T06:09:24;29.17;;;18.67;;
15412;SDS011;7805;49.554;7.632;2024-01-10T06:11:50;26.23;;;15.27;;
15412;SDS011;7805;49.554;7.632;2024-01-10T06:14:16;22.97;;;13.60;;
15412;SDS011;7805;49.554;7.632;2024-01-10T06:16:42;22.83;;;13.17;;
15412;SDS011;7805;49.554;7.632;2024-01-10T06:19:08;24.03;;;13.40;;
15412;SDS011;7805;49.554;7.632;2024-01-10T06:21:35;25.27;;;13.67;;
15412;SDS011;7805;49.554;7.632;2024-01-10T06:24:01;24.40;;;13.17;;
15412;SDS011;7805;49.554;7.632;2024-01-10T06:26:27;25.50;;;13.40;;
15412;SDS011;7805;49.554;7.632;2024-01-10T06:28:53;24.03;;;12.83;;
15412;SDS011;7805;49.554;7.632;2024-01-10T06:31:18;23.53;;;12.63;;
15412;SDS011;7805;49.554;7.632;2024-01-10T06:33:45;21.73;;;11.90;;
15412;SDS011;7805;49.554;7.632;2024-01-10T06:36:10;22.50;;;13.00;;
15412;SDS011;7805;49.554;7.632;2024-01-10T06:38:38;21.67;;;12.43;;
15412;SDS011;7805;49.554;7.632;2024-01-10T06:41:12;22.80;;;13.03;;
15412;SDS011;7805;49.554;7.632;2024-01-10T06:43:40;22.20;;;13.10;;
15412;SDS011;7805;49.554;7.632;2024-01-10T06:46:06;20.23;;;11.40;;
15412;SDS011;7805;49.554;7.632;2024-01-10T06:48:32;25.47;;;13.87;;
15412;SDS011;7805;49.554;7.632;2024-01-10T06:50:58;24.60;;;13.67;;
15412;SDS011;7805;49.554;7.632;2024-01-10T06:53:24;25.33;;;13.20;;
15412;SDS011;7805;49.554;7.632;2024-01-10T06:55:49;26.83;;;13.43;;
15412;SDS011;7805;49.554;7.632;2024-01-10T06:58:15;25.87;;;13.83;;
15412;SDS011;7805;49.554;7.632;2024-01-10T07:00:41;24.83;;;13.93;;
15412;SDS011;7805;49.554;7.632;2024-01-10T07:03:07;27.67;;;13.63;;
15412;SDS011;7805;49.554;7.632;2024-01-10T07:05:32;23.20;;;12.93;;
15412;SDS011;7805;49.554;7.632;2024-01-10T07:07:58;28.43;;;14.47;;
15412;SDS011;7805;49.554;7.632;2024-01-10T07:10:24;28.80;;;14.37;;
15412;SDS011;7805;49.554;7.632;2024-01-10T07:12:53;23.90;;;12.83;;
15412;SDS011;7805;49.554;7.632;2024-01-10T07:15:19;28.80;;;15.10;;
15412;SDS011;7805;49.554;7.632;2024-01-10T07:17:45;23.10;;;13.30;;
15412;SDS011;7805;49.554;7.632;2024-01-10T07:20:10;26.70;;;14.37;;
15412;SDS011;7805;49.554;7.632;2024-01-10T07:22:37;25.37;;;14.80;;
15412;SDS011;7805;49.554;7.632;2024-01-10T07:25:06;23.47;;;14.20;;
15412;SDS011;7805;49.554;7.632;2024-01-10T07:27:33;28.47;;;13.63;;
15412;SDS011;7805;49.554;7.632;2024-01-10T07:29:59;28.97;;;14.67;;
15412;SDS011;7805;49.554;7.632;2024-01-10T07:32:25;25.60;;;14.20;;
15412;SDS011;7805;49.554;7.632;2024-01-10T07:34:50;32.23;;;15.97;;
15412;SDS011;7805;49.554;7.632;2024-01-10T07:37:16;30.90;;;16.03;;
15412;SDS011;7805;49.554;7.632;2024-01-10T07:39:45;31.07;;;16.43;;
15412;SDS011;7805;49.554;7.632;2024-01-10T07:42:11;24.27;;;13.70;;
15412;SDS011;7805;49.554;7.632;2024-01-10T07:44:37;32.80;;;15.77;;
15412;SDS011;7805;49.554;7.632;2024-01-10T07:47:03;24.73;;;13.53;;
15412;SDS011;7805;49.554;7.632;2024-01-10T07:49:28;28.37;;;15.93;;
15412;SDS011;7805;49.554;7.632;2024-01-10T07:51:55;28.40;;;15.60;;
15412;SDS011;7805;49.554;7.632;2024-01-10T07:54:20;27.57;;;14.73;;
15412;SDS011;7805;49.554;7.632;2024-01-10T07:56:46;27.20;;;14.53;;
15412;SDS011;7805;49.554;7.632;2024-01-10T07:59:11;38.33;;;20.13;;
15412;SDS011;7805;49.554;7.632;2024-01-10T08:01:40;39.87;;;20.30;;
15412;SDS011;7805;49.554;7.632;2024-01-10T08:04:09;34.20;;;17.23;;
15412;SDS011;7805;49.554;7.632;2024-01-10T08:06:35;30.03;;;15.90;;
15412;SDS011;7805;49.554;7.632;2024-01-10T08:09:00;31.83;;;15.93;;
15412;SDS011;7805;49.554;7.632;2024-01-10T08:11:29;25.80;;;14.77;;
15412;SDS011;7805;49.554;7.632;2024-01-10T08:13:54;28.47;;;14.80;;
15412;SDS011;7805;49.554;7.632;2024-01-10T08:16:20;30.60;;;18.30;;
15412;SDS011;7805;49.554;7.632;2024-01-10T08:18:46;32.43;;;19.50;;
15412;SDS011;7805;49.554;7.632;2024-01-10T08:21:11;37.63;;;18.27;;
15412;SDS011;7805;49.554;7.632;2024-01-10T08:23:37;31.57;;;17.93;;
15412;SDS011;7805;49.554;7.632;2024-01-10T08:26:06;31.27;;;17.70;;
15412;SDS011;7805;49.554;7.632;2024-01-10T08:28:33;34.67;;;19.40;;
15412;SDS011;7805;49.554;7.632;2024-01-10T08:30:58;31.97;;;20.13;;
15412;SDS011;7805;49.554;7.632;2024-01-10T08:33:24;31.87;;;20.17;;
15412;SDS011;7805;49.554;7.632;2024-01-10T08:35:50;33.87;;;19.23;;
15412;SDS011;7805;49.554;7.632;2024-01-10T08:38:15;29.30;;;17.73;;
15412;SDS011;7805;49.554;7.632;2024-01-10T08:40:41;28.13;;;16.43;;
15412;SDS011;7805;49.554;7.632;2024-01-10T08:43:07;30.40;;;16.60;;
15412;SDS011;7805;49.554;7.632;2024-01-10T08:45:32;32.97;;;18.73;;
15412;SDS011;7805;49.554;7.632;2024-01-10T08:47:58;26.33;;;17.97;;
15412;SDS011;7805;49.554;7.632;2024-01-10T08:50:24;34.57;;;18.30;;
15412;SDS011;7805;49.554;7.632;2024-01-10T08:52:49;31.17;;;17.60;;
15412;SDS011;7805;49.554;7.632;2024-01-10T08:55:15;34.00;;;16.80;;
15412;SDS011;7805;49.554;7.632;2024-01-10T08:57:41;30.13;;;16.70;;
15412;SDS011;7805;49.554;7.632;2024-01-10T09:00:06;33.23;;;17.37;;
15412;SDS011;7805;49.554;7.632;2024-01-10T09:02:36;25.27;;;14.30;;
15412;SDS011;7805;49.554;7.632;2024-01-10T09:05:02;27.80;;;14.77;;
15412;SDS011;7805;49.554;7.632;2024-01-10T09:07:29;28.43;;;15.23;;
15412;SDS011;7805;49.554;7.632;2024-01-10T09:09:55;26.73;;;14.70;;
15412;SDS011;7805;49.554;7.632;2024-01-10T09:12:21;28.97;;;14.40;;
15412;SDS011;7805;49.554;7.632;2024-01-10T09:14:46;26.63;;;14.80;;
15412;SDS011;7805;49.554;7.632;2024-01-10T09:17:12;28.70;;;15.47;;
15412;SDS011;7805;49.554;7.632;2024-01-10T09:19:37;24.83;;;14.10;;
15412;SDS011;7805;49.554;7.632;2024-01-10T09:22:03;26.57;;;14.47;;
15412;SDS011;7805;49.554;7.632;2024-01-10T09:24:29;27.43;;;14.47;;
15412;SDS011;7805;49.554;7.632;2024-01-10T09:26:55;28.23;;;14.53;;
15412;SDS011;7805;49.554;7.632;2024-01-10T09:29:21;26.47;;;14.33;;
15412;SDS011;7805;49.554;7.632;2024-01-10T09:31:46;24.93;;;14.40;;
15412;SDS011;7805;49.554;7.632;2024-01-10T09:34:12;25.53;;;14.67;;
15412;SDS011;7805;49.554;7.632;2024-01-10T09:36:37;24.73;;;14.50;;
15412;SDS011;7805;49.554;7.632;2024-01-10T09:39:03;29.47;;;14.60;;
15412;SDS011;7805;49.554;7.632;2024-01-10T09:41:30;27.10;;;14.63;;
15412;SDS011;7805;49.554;7.632;2024-01-10T09:44:03;26.83;;;15.50;;
15412;SDS011;7805;49.554;7.632;2024-01-10T09:46:29;25.23;;;14.00;;
15412;SDS011;7805;49.554;7.632;2024-01-10T09:48:57;25.37;;;15.03;;
15412;SDS011;7805;49.554;7.632;2024-01-10T09:51:23;27.23;;;15.20;;
15412;SDS011;7805;49.554;7.632;2024-01-10T09:53:49;26.57;;;14.90;;
15412;SDS011;7805;49.554;7.632;2024-01-10T09:56:17;29.77;;;15.73;;
15412;SDS011;7805;49.554;7.632;2024-01-10T09:58:45;44.47;;;20.67;;
15412;SDS011;7805;49.554;7.632;2024-01-10T10:01:14;27.07;;;15.07;;
15412;SDS011;7805;49.554;7.632;2024-01-10T10:03:41;26.13;;;15.43;;
15412;SDS011;7805;49.554;7.632;2024-01-10T10:06:09;26.30;;;15.43;;
15412;SDS011;7805;49.554;7.632;2024-01-10T10:08:35;25.83;;;15.67;;
15412;SDS011;7805;49.554;7.632;2024-01-10T10:11:00;32.93;;;17.57;;
15412;SDS011;7805;49.554;7.632;2024-01-10T10:13:28;27.07;;;15.00;;
15412;SDS011;7805;49.554;7.632;2024-01-10T10:15:58;26.97;;;14.77;;
15412;SDS011;7805;49.554;7.632;2024-01-10T10:18:24;23.00;;;13.60;;
15412;SDS011;7805;49.554;7.632;2024-01-10T10:21:03;25.27;;;15.93;;
15412;SDS011;7805;49.554;7.632;2024-01-10T10:23:32;28.67;;;16.03;;
15412;SDS011;7805;49.554;7.632;2024-01-10T10:25:58;39.37;;;19.77;;
15412;SDS011;7805;49.554;7.632;2024-01-10T10:28:30;24.97;;;15.57;;
15412;SDS011;7805;49.554;7.632;2024-01-10T10:30:56;32.57;;;17.77;;
15412;SDS011;7805;49.554;7.632;2024-01-10T10:33:22;35.63;;;18.90;;
15412;SDS011;7805;49.554;7.632;2024-01-10T10:35:49;24.77;;;14.87;;
15412;SDS011;7805;49.554;7.632;2024-01-10T10:38:15;28.87;;;16.87;;
15412;SDS011;7805;49.554;7.632;2024-01-10T10:40:41;42.23;;;24.07;;
15412;SDS011;7805;49.554;7.632;2024-01-10T10:43:06;53.63;;;22.17;;
15412;SDS011;7805;49.554;7.632;2024-01-10T10:45:39;33.23;;;17.60;;
15412;SDS011;7805;49.554;7.632;2024-01-10T10:48:06;40.27;;;19.43;;
15412;SDS011;7805;49.554;7.632;2024-01-10T10:50:34;26.17;;;16.37;;
15412;SDS011;7805;49.554;7.632;2024-01-10T10:53:02;24.20;;;14.40;;
15412;SDS011;7805;49.554;7.632;2024-01-10T10:55:29;30.97;;;18.93;;
15412;SDS011;7805;49.554;7.632;2024-01-10T10:57:55;30.23;;;17.50;;
15412;SDS011;7805;49.554;7.632;2024-01-10T11:00:21;22.43;;;15.70;;
15412;SDS011;7805;49.554;7.632;2024-01-10T11:02:52;21.93;;;15.43;;
15412;SDS011;7805;49.554;7.632;2024-01-10T11:05:20;23.90;;;15.73;;
15412;SDS011;7805;49.554;7.632;2024-01-10T11:07:46;24.23;;;14.83;;
15412;SDS011;7805;49.554;7.632;2024-01-10T11:10:21;21.90;;;14.63;;
15412;SDS011;7805;49.554;7.632;2024-01-10T11:24:18;20.40;;;13.80;;
15412;SDS011;7805;49.554;7.632;2024-01-10T11:26:45;21.43;;;14.40;;
15412;SDS011;7805;49.554;7.632;2024-01-10T11:29:11;20.27;;;13.33;;
15412;SDS011;7805;49.554;7.632;2024-01-10T11:31:37;23.67;;;14.60;;
15412;SDS011;7805;49.554;7.632;2024-01-10T11:34:04;18.80;;;13.47;;
15412;SDS011;7805;49.554;7.632;2024-01-10T11:36:30;19.70;;;13.67;;
15412;SDS011;7805;49.554;7.632;2024-01-10T11:39:03;21.03;;;14.03;;
15412;SDS011;7805;49.554;7.632;2024-01-10T11:41:31;20.13;;;13.70;;
15412;SDS011;7805;49.554;7.632;2024-01-10T11:46:37;17.67;;;12.87;;
15412;SDS011;7805;49.554;7.632;2024-01-10T11:49:10;16.90;;;12.63;;
15412;SDS011;7805;49.554;7.632;2024-01-10T11:51:38;20.57;;;13.30;;
15412;SDS011;7805;49.554;7.632;2024-01-10T11:54:06;19.77;;;13.33;;
15412;SDS011;7805;49.554;7.632;2024-01-10T11:56:39;20.37;;;13.23;;
15412;SDS011;7805;49.554;7.632;2024-01-10T11:59:09;19.53;;;13.40;;
15412;SDS011;7805;49.554;7.632;2024-01-10T12:01:39;19.20;;;13.20;;
15412;SDS011;7805;49.554;7.632;2024-01-10T12:04:06;22.53;;;13.23;;
15412;SDS011;7805;49.554;7.632;2024-01-10T12:06:32;20.07;;;13.60;;
15412;SDS011;7805;49.554;7.632;2024-01-10T12:09:01;18.60;;;13.00;;
15412;SDS011;7805;49.554;7.632;2024-01-10T12:11:33;19.30;;;13.63;;
15412;SDS011;7805;49.554;7.632;2024-01-10T12:13:59;18.87;;;13.20;;
15412;SDS011;7805;49.554;7.632;2024-01-10T12:16:25;19.50;;;13.37;;
15412;SDS011;7805;49.554;7.632;2024-01-10T12:18:50;27.23;;;17.10;;
15412;SDS011;7805;49.554;7.632;2024-01-10T12:21:16;21.47;;;15.00;;
15412;SDS011;7805;49.554;7.632;2024-01-10T12:23:42;21.57;;;14.87;;
15412;SDS011;7805;49.554;7.632;2024-01-10T12:26:09;22.17;;;15.60;;
15412;SDS011;7805;49.554;7.632;2024-01-10T12:28:37;24.87;;;14.93;;
15412;SDS011;7805;49.554;7.632;2024-01-10T12:31:04;19.73;;;13.77;;
15412;SDS011;7805;49.554;7.632;2024-01-10T12:33:33;21.37;;;14.43;;
15412;SDS011;7805;49.554;7.632;2024-01-10T12:36:03;20.23;;;13.63;;
15412;SDS011;7805;49.554;7.632;2024-01-10T12:38:34;20.43;;;13.30;;
15412;SDS011;7805;49.554;7.632;2024-01-10T12:41:01;30.17;;;17.43;;
15412;SDS011;7805;49.554;7.632;2024-01-10T12:43:27;21.33;;;13.50;;
15412;SDS011;7805;49.554;7.632;2024-01-10T12:46:11;20.63;;;14.63;;
15412;SDS011;7805;49.554;7.632;2024-01-10T12:48:40;22.50;;;13.90;;
15412;SDS011;7805;49.554;7.632;2024-01-10T12:51:07;20.27;;;14.03;;
15412;SDS011;7805;49.554;7.632;2024-01-10T12:53:34;22.83;;;14.70;;
15412;SDS011;7805;49.554;7.632;2024-01-10T12:56:06;19.57;;;13.10;;
15412;SDS011;7805;49.554;7.632;2024-01-10T12:58:33;21.07;;;14.50;;
15412;SDS011;7805;49.554;7.632;2024-01-10T13:01:00;22.63;;;13.63;;
15412;SDS011;7805;49.554;7.632;2024-01-10T13:03:25;20.10;;;15.23;;
15412;SDS011;7805;49.554;7.632;2024-01-10T13:05:51;20.67;;;13.77;;
15412;SDS011;7805;49.554;7.632;2024-01-10T13:08:17;22.40;;;14.30;;
15412;SDS011;7805;49.554;7.632;2024-01-10T13:10:46;22.90;;;14.47;;
15412;SDS011;7805;49.554;7.632;2024-01-10T13:13:13;23.97;;;16.10;;
15412;SDS011;7805;49.554;7.632;2024-01-10T13:15:39;21.13;;;16.30;;
15412;SDS011;7805;49.554;7.632;2024-01-10T13:18:05;23.67;;;15.47;;
15412;SDS011;7805;49.554;7.632;2024-01-10T13:20:32;20.17;;;14.40;;
15412;SDS011;7805;49.554;7.632;2024-01-10T13:22:57;23.33;;;14.67;;
15412;SDS011;7805;49.554;7.632;2024-01-10T13:25:23;17.50;;;13.53;;
15412;SDS011;7805;49.554;7.632;2024-01-10T13:27:49;20.57;;;14.50;;
15412;SDS011;7805;49.554;7.632;2024-01-10T13:30:16;18.77;;;14.80;;
15412;SDS011;7805;49.554;7.632;2024-01-10T13:32:42;17.53;;;14.63;;
15412;SDS011;7805;49.554;7.632;2024-01-10T13:35:12;18.07;;;14.43;;
15412;SDS011;7805;49.554;7.632;2024-01-10T13:37:43;18.83;;;14.47;;
15412;SDS011;7805;49.554;7.632;2024-01-10T13:40:10;17.27;;;13.30;;
15412;SDS011;7805;49.554;7.632;2024-01-10T13:42:37;18.47;;;14.73;;
15412;SDS011;7805;49.554;7.632;2024-01-10T13:45:07;17.33;;;14.20;;
15412;SDS011;7805;49.554;7.632;2024-01-10T13:47:35;18.83;;;14.60;;
15412;SDS011;7805;49.554;7.632;2024-01-10T13:50:02;19.40;;;15.80;;
15412;SDS011;7805;49.554;7.632;2024-01-10T13:52:29;21.57;;;16.07;;
15412;SDS011;7805;49.554;7.632;2024-01-10T13:54:54;25.33;;;18.60;;
15412;SDS011;7805;49.554;7.632;2024-01-10T13:57:21;42.03;;;26.83;;
15412;SDS011;7805;49.554;7.632;2024-01-10T13:59:47;104.50;;;59.27;;
15412;SDS011;7805;49.554;7.632;2024-01-10T14:02:13;78.47;;;50.70;;
15412;SDS011;7805;49.554;7.632;2024-01-10T14:04:39;90.97;;;62.50;;
15412;SDS011;7805;49.554;7.632;2024-01-10T14:07:04;37.33;;;24.80;;
15412;SDS011;7805;49.554;7.632;2024-01-10T14:09:30;24.43;;;16.43;;
15412;SDS011;7805;49.554;7.632;2024-01-10T14:11:56;38.00;;;28.53;;
15412;SDS011;7805;49.554;7.632;2024-01-10T14:14:22;25.70;;;19.57;;
15412;SDS011;7805;49.554;7.632;2024-01-10T14:16:47;26.60;;;19.67;;
15412;SDS011;7805;49.554;7.632;2024-01-10T14:19:13;40.13;;;30.90;;
15412;SDS011;7805;49.554;7.632;2024-01-10T14:21:39;28.13;;;20.63;;
15412;SDS011;7805;49.554;7.632;2024-01-10T14:24:04;22.43;;;15.73;;
15412;SDS011;7805;49.554;7.632;2024-01-10T14:26:32;20.77;;;14.57;;
15412;SDS011;7805;49.554;7.632;2024-01-10T14:28:58;22.93;;;16.50;;
15412;SDS011;7805;49.554;7.632;2024-01-10T14:31:24;23.57;;;15.53;;
15412;SDS011;7805;49.554;7.632;2024-01-10T14:33:50;19.57;;;14.07;;
15412;SDS011;7805;49.554;7.632;2024-01-10T14:36:15;21.97;;;15.53;;
15412;SDS011;7805;49.554;7.632;2024-01-10T14:38:41;20.70;;;13.67;;
15412;SDS011;7805;49.554;7.632;2024-01-10T14:41:07;23.40;;;15.20;;
15412;SDS011;7805;49.554;7.632;2024-01-10T14:43:33;21.53;;;14.97;;
15412;SDS011;7805;49.554;7.632;2024-01-10T14:46:01;26.80;;;17.20;;
15412;SDS011;7805;49.554;7.632;2024-01-10T14:48:27;24.30;;;15.70;;